createdAt,value
2022-11-08T05:00:39.431Z,10.80
2022-11-08T05:03:12.436Z,10.80
2022-11-08T05:05:44.071Z,10.70
2022-11-08T05:08:16.104Z,10.70
2022-11-08T05:10:48.074Z,10.70
2022-11-08T05:15:54.094Z,10.60
2022-11-08T05:18:27.125Z,10.60
2022-11-08T05:20:59.356Z,10.60
2022-11-08T05:23:30.989Z,10.60
2022-11-08T05:26:02.640Z,10.60
2022-11-08T05:28:34.417Z,10.60
2022-11-08T05:31:06.351Z,10.60
2022-11-08T05:33:39.338Z,10.60
2022-11-08T05:36:12.412Z,10.60
2022-11-08T05:38:44.094Z,10.60
2022-11-08T05:41:17.212Z,10.60
2022-11-08T05:43:50.363Z,10.60
2022-11-08T05:46:22.590Z,10.60
2022-11-08T05:48:55.926Z,10.60
2022-11-08T05:51:27.555Z,10.50
2022-11-08T05:53:59.225Z,10.50
2022-11-08T05:56:30.870Z,10.50
2022-11-08T05:59:02.526Z,10.60
2022-11-08T06:01:34.416Z,10.50
2022-11-08T06:04:07.454Z,10.50
2022-11-08T06:06:39.119Z,10.50
2022-11-08T06:09:10.774Z,10.50
2022-11-08T06:11:42.402Z,10.50
2022-11-08T06:14:14.084Z,10.50
2022-11-08T06:16:45.759Z,10.50
2022-11-08T06:19:18.752Z,10.50
2022-11-08T06:21:50.398Z,10.50
2022-11-08T06:24:22.208Z,10.50
2022-11-08T06:26:53.863Z,10.50
2022-11-08T06:29:25.496Z,10.50
2022-11-08T06:31:57.148Z,10.50
2022-11-08T06:34:30.136Z,10.50
2022-11-08T06:37:01.799Z,10.50
2022-11-08T06:39:33.503Z,10.50
2022-11-08T06:42:05.288Z,10.50
2022-11-08T06:44:37.064Z,10.50
2022-11-08T06:47:08.772Z,10.50
2022-11-08T06:49:41.785Z,10.50
2022-11-08T06:52:13.537Z,10.50
2022-11-08T06:54:45.194Z,10.50
2022-11-08T06:57:16.855Z,10.50
2022-11-08T06:59:48.534Z,10.60
2022-11-08T07:02:20.586Z,10.60
2022-11-08T07:04:53.736Z,10.60
2022-11-08T07:07:25.476Z,10.60
2022-11-08T07:10:02.311Z,10.70
2022-11-08T07:12:35.688Z,10.70
2022-11-08T07:15:07.764Z,10.80
2022-11-08T07:17:39.475Z,10.90
2022-11-08T07:20:12.937Z,10.90
2022-11-08T07:22:44.603Z,11.00
2022-11-08T07:25:16.401Z,11.10
2022-11-08T07:27:48.171Z,11.20
2022-11-08T07:30:19.808Z,11.20
2022-11-08T07:32:51.854Z,11.30
2022-11-08T07:35:25.164Z,11.30
2022-11-08T07:37:57.024Z,11.30
2022-11-08T07:40:28.767Z,11.40
2022-11-08T07:43:15.969Z,11.40
2022-11-08T07:45:52.565Z,11.30
2022-11-08T07:48:24.369Z,11.40
2022-11-08T07:50:57.372Z,11.40
2022-11-08T07:53:29.559Z,11.50
2022-11-08T07:56:01.250Z,11.50
2022-11-08T07:58:32.919Z,11.60
2022-11-08T08:01:04.607Z,11.60
2022-11-08T08:03:36.243Z,11.70
2022-11-08T08:06:09.289Z,11.70
2022-11-08T08:08:40.939Z,11.80
2022-11-08T08:11:12.648Z,11.90
2022-11-08T08:13:44.286Z,12.00
2022-11-08T08:16:15.947Z,12.10
2022-11-08T08:18:52.333Z,12.20
2022-11-08T08:21:29.075Z,12.30
2022-11-08T08:24:00.795Z,12.30
2022-11-08T08:26:32.488Z,12.40
2022-11-08T08:29:04.235Z,12.40
2022-11-08T08:31:35.929Z,12.50
2022-11-08T08:34:07.627Z,12.60
2022-11-08T08:36:40.740Z,12.60
2022-11-08T08:39:12.419Z,12.70
2022-11-08T08:41:44.102Z,12.80
2022-11-08T08:44:15.832Z,12.90
2022-11-08T08:46:47.515Z,12.90
2022-11-08T08:49:19.151Z,13.00
2022-11-08T08:51:52.143Z,13.00
2022-11-08T08:54:29.195Z,13.10
2022-11-08T08:57:01.164Z,13.20
2022-11-08T09:02:24.452Z,13.30
2022-11-08T09:04:56.153Z,13.40
2022-11-08T09:07:29.168Z,13.40
2022-11-08T09:10:00.803Z,13.50
2022-11-08T09:12:32.624Z,13.50
2022-11-08T09:15:05.005Z,13.60
2022-11-08T09:17:36.648Z,13.60
2022-11-08T09:20:09.513Z,13.60
2022-11-08T09:22:42.554Z,13.70
2022-11-08T09:25:14.212Z,13.80
2022-11-08T09:27:45.864Z,13.80
2022-11-08T09:30:17.579Z,13.80
2022-11-08T09:33:04.713Z,13.80
2022-11-08T09:35:36.438Z,13.80
2022-11-08T09:38:09.478Z,13.80
2022-11-08T09:40:42.482Z,13.90
2022-11-08T09:43:28.717Z,13.80
2022-11-08T09:46:00.595Z,13.80
2022-11-08T09:48:34.099Z,13.80
2022-11-08T09:51:07.160Z,13.80
2022-11-08T09:53:44.010Z,13.90
2022-11-08T09:56:16.588Z,13.90
2022-11-08T09:58:50.586Z,13.90
2022-11-08T10:01:27.017Z,14.00
2022-11-08T10:04:01.945Z,14.00
2022-11-08T10:07:02.070Z,14.10
2022-11-08T10:09:44.313Z,14.20
2022-11-08T10:12:19.699Z,14.20
2022-11-08T10:15:02.322Z,14.20
2022-11-08T10:17:57.365Z,14.20
2022-11-08T10:20:34.391Z,14.20
2022-11-08T10:23:18.978Z,14.30
2022-11-08T10:25:54.283Z,14.30
2022-11-08T10:28:28.418Z,14.30
2022-11-08T10:31:00.236Z,14.30
2022-11-08T10:33:34.887Z,14.30
2022-11-08T10:36:07.954Z,14.30
2022-11-08T10:38:42.690Z,14.30
2022-11-08T10:41:17.615Z,14.40
2022-11-08T10:43:51.133Z,14.40
2022-11-08T10:46:37.216Z,14.50
2022-11-08T10:49:12.156Z,14.50
2022-11-08T10:51:44.575Z,14.60
2022-11-08T10:54:40.670Z,14.60
2022-11-08T10:57:14.470Z,14.70
2022-11-08T10:59:46.163Z,14.80
2022-11-08T11:02:19.843Z,14.90
2022-11-08T11:04:51.740Z,14.90
2022-11-08T11:07:30.854Z,15.00
2022-11-08T11:10:22.294Z,15.00
2022-11-08T11:13:02.400Z,15.10
2022-11-08T11:15:35.297Z,15.20
2022-11-08T11:18:28.065Z,15.20
2022-11-08T11:21:04.406Z,15.30
2022-11-08T11:23:38.352Z,15.30
2022-11-08T11:26:18.008Z,15.20
2022-11-08T11:29:01.756Z,15.30
2022-11-08T11:31:34.596Z,15.20
2022-11-08T11:34:36.043Z,15.30
2022-11-08T11:37:18.547Z,15.30
2022-11-08T11:39:57.872Z,15.30
2022-11-08T11:42:45.601Z,15.40
2022-11-08T11:45:21.734Z,15.40
2022-11-08T11:47:54.987Z,15.60
2022-11-08T11:50:29.862Z,15.70
2022-11-08T11:53:02.904Z,15.80
2022-11-08T11:55:45.092Z,15.80
2022-11-08T11:58:25.044Z,15.90
2022-11-08T12:00:59.410Z,15.90
2022-11-08T12:03:50.886Z,16.00
2022-11-08T12:06:30.843Z,16.00
2022-11-08T12:09:11.894Z,16.10
2022-11-08T12:11:52.274Z,16.00
2022-11-08T12:14:31.488Z,16.10
2022-11-08T12:17:13.639Z,16.10
2022-11-08T12:19:47.586Z,16.00
2022-11-08T12:22:38.355Z,16.10
2022-11-08T12:25:10.854Z,16.10
2022-11-08T12:27:46.813Z,16.20
2022-11-08T12:30:19.672Z,16.10
2022-11-08T12:33:06.735Z,16.20
2022-11-08T12:35:41.004Z,16.20
2022-11-08T12:38:19.317Z,16.20
2022-11-08T12:40:54.723Z,16.20
2022-11-08T12:43:35.435Z,16.20
2022-11-08T12:46:09.622Z,16.20
2022-11-08T12:49:10.141Z,16.20
2022-11-08T12:54:20.704Z,16.30
2022-11-08T12:56:53.275Z,16.20
2022-11-08T12:59:28.215Z,16.20
2022-11-08T13:02:00.742Z,16.10
2022-11-08T13:04:56.121Z,16.00
2022-11-08T13:07:33.928Z,16.00
2022-11-08T13:10:12.367Z,15.90
2022-11-08T13:12:48.784Z,15.90
2022-11-08T13:15:21.564Z,15.80
2022-11-08T13:18:22.164Z,15.80
2022-11-08T13:20:55.168Z,15.80
2022-11-08T13:23:29.986Z,15.70
2022-11-08T13:26:12.224Z,15.70
2022-11-08T13:28:44.404Z,15.70
2022-11-08T13:31:22.025Z,15.70
2022-11-08T13:34:03.340Z,15.70
2022-11-08T13:36:42.570Z,15.80
2022-11-08T13:39:27.771Z,15.80
2022-11-08T13:42:04.599Z,15.80
2022-11-08T13:44:59.869Z,15.90
2022-11-08T13:47:49.868Z,15.90
2022-11-08T13:50:50.426Z,15.90
2022-11-08T13:53:53.678Z,15.90
2022-11-08T13:56:41.400Z,15.90
2022-11-08T13:59:52.837Z,16.00
2022-11-08T14:02:45.556Z,16.00
2022-11-08T14:05:24.588Z,16.00
2022-11-08T14:08:20.805Z,16.00
2022-11-08T14:11:24.367Z,16.00
2022-11-08T14:14:03.271Z,16.00
2022-11-08T14:16:41.078Z,16.10
2022-11-08T14:19:20.441Z,16.10
2022-11-08T14:21:53.580Z,16.10
2022-11-08T14:24:26.864Z,16.20
2022-11-08T14:26:59.840Z,16.20
2022-11-08T14:29:31.478Z,16.30
2022-11-08T14:32:05.113Z,16.30
2022-11-08T14:34:37.363Z,16.30
2022-11-08T14:37:15.036Z,16.30
2022-11-08T14:39:46.777Z,16.30
2022-11-08T14:42:21.816Z,16.30
2022-11-08T14:44:54.434Z,16.40
2022-11-08T14:47:26.706Z,16.40
2022-11-08T14:49:58.840Z,16.40
2022-11-08T14:52:31.180Z,16.30
2022-11-08T14:55:04.634Z,16.30
2022-11-08T14:57:38.119Z,16.30
2022-11-08T15:00:17.327Z,16.20
2022-11-08T15:02:50.039Z,16.20
2022-11-08T15:05:26.932Z,16.20
2022-11-08T15:07:58.972Z,16.20
2022-11-08T15:10:30.620Z,16.10
2022-11-08T15:13:03.625Z,16.10
2022-11-08T15:15:35.274Z,16.10
2022-11-08T15:18:13.865Z,16.10
2022-11-08T15:20:55.718Z,16.10
2022-11-08T15:23:41.673Z,16.00
2022-11-08T15:26:21.314Z,16.10
2022-11-08T15:29:02.268Z,16.10
2022-11-08T15:31:36.064Z,16.00
2022-11-08T15:34:18.729Z,16.00
2022-11-08T15:36:50.392Z,15.90
2022-11-08T15:39:23.273Z,15.90
2022-11-08T15:41:59.052Z,15.90
2022-11-08T15:44:32.045Z,15.80
2022-11-08T15:47:03.743Z,15.80
2022-11-08T15:49:35.375Z,15.80
2022-11-08T15:52:07.010Z,15.80
2022-11-08T15:54:38.668Z,15.80
2022-11-08T15:57:10.641Z,15.70
2022-11-08T15:59:43.606Z,15.70
2022-11-08T16:02:15.286Z,15.70
2022-11-08T16:04:46.904Z,15.70
2022-11-08T16:07:18.653Z,15.70
2022-11-08T16:09:50.387Z,15.70
2022-11-08T16:12:22.023Z,15.70
2022-11-08T16:14:55.067Z,15.70
2022-11-08T16:17:26.712Z,15.70
2022-11-08T16:19:58.354Z,15.70
2022-11-08T16:22:30.009Z,15.70
2022-11-08T16:25:01.664Z,15.70
2022-11-08T16:27:33.314Z,15.70
2022-11-08T16:30:12.831Z,15.70
2022-11-08T16:32:44.526Z,15.70
2022-11-08T16:35:16.443Z,15.60
2022-11-08T16:37:48.122Z,15.70
2022-11-08T16:40:21.242Z,15.70
2022-11-08T16:42:54.032Z,15.60
2022-11-08T16:45:50.664Z,15.70
2022-11-08T16:48:19.787Z,15.70
2022-11-08T16:50:51.608Z,15.60
2022-11-08T16:53:23.234Z,15.60
2022-11-08T16:55:54.889Z,15.60
2022-11-08T16:58:26.544Z,15.60
2022-11-08T17:00:59.647Z,15.60
2022-11-08T17:03:31.382Z,15.60
2022-11-08T17:06:03.282Z,15.50
2022-11-08T17:08:34.931Z,15.50
2022-11-08T17:11:06.727Z,15.50
2022-11-08T17:13:40.634Z,15.50
2022-11-08T17:16:14.078Z,15.50
2022-11-08T17:18:51.316Z,15.50
2022-11-08T17:24:21.560Z,15.40
2022-11-08T17:26:53.788Z,15.40
2022-11-08T17:29:25.735Z,15.40
2022-11-08T17:31:58.772Z,15.40
2022-11-08T17:34:30.461Z,15.40
2022-11-08T17:37:02.297Z,15.40
2022-11-08T17:39:34.004Z,15.40
2022-11-08T17:42:05.838Z,15.40
2022-11-08T17:44:37.532Z,15.40
2022-11-08T17:47:10.545Z,15.40
2022-11-08T17:49:43.981Z,15.40
2022-11-08T17:52:16.036Z,15.40
2022-11-08T17:54:52.614Z,15.40
2022-11-08T17:57:24.700Z,15.40
2022-11-08T17:59:56.358Z,15.40
2022-11-08T18:02:29.501Z,15.40
2022-11-08T18:05:01.213Z,15.40
2022-11-08T18:07:32.869Z,15.40
2022-11-08T18:10:06.003Z,15.40
2022-11-08T18:12:37.668Z,15.40
2022-11-08T18:15:10.055Z,15.40
2022-11-08T18:17:43.064Z,15.40
2022-11-08T18:20:14.781Z,15.40
2022-11-08T18:22:46.709Z,15.40
2022-11-08T18:25:18.375Z,15.40
2022-11-08T18:27:50.067Z,15.30
2022-11-08T18:30:21.750Z,15.40
2022-11-08T18:32:54.735Z,15.40
2022-11-08T18:35:26.420Z,15.40
2022-11-08T18:37:58.056Z,15.40
2022-11-08T18:40:29.740Z,15.40
2022-11-08T18:43:01.399Z,15.40
2022-11-08T18:45:33.076Z,15.40
2022-11-08T18:48:06.170Z,15.40
2022-11-08T18:50:37.831Z,15.40
2022-11-08T18:53:09.477Z,15.40
2022-11-08T18:55:41.176Z,15.40
2022-11-08T18:58:12.811Z,15.30
2022-11-08T19:00:44.489Z,15.30
2022-11-08T19:03:17.742Z,15.30
2022-11-08T19:05:49.707Z,15.30
2022-11-08T19:08:22.325Z,15.30
2022-11-08T19:10:54.925Z,15.20
2022-11-08T19:13:27.464Z,15.20
2022-11-08T19:15:59.789Z,15.20
2022-11-08T19:18:32.903Z,15.20
2022-11-08T19:21:05.631Z,15.20
2022-11-08T19:23:37.315Z,15.30
2022-11-08T19:26:12.102Z,15.30
2022-11-08T19:28:44.303Z,15.30
2022-11-08T19:31:16.813Z,15.30
2022-11-08T19:33:51.044Z,15.30
2022-11-08T19:36:23.646Z,15.30
2022-11-08T19:38:55.771Z,15.20
2022-11-08T19:41:28.044Z,15.20
2022-11-08T19:43:59.664Z,15.20
2022-11-08T19:46:31.387Z,15.20
2022-11-08T19:49:04.430Z,15.20
2022-11-08T19:51:36.137Z,15.20
2022-11-08T19:54:09.754Z,15.20
2022-11-08T19:57:04.007Z,15.20
2022-11-08T19:59:33.014Z,15.10
2022-11-08T20:02:04.774Z,15.10
2022-11-08T20:04:37.904Z,15.00
2022-11-08T20:07:09.612Z,15.00
2022-11-08T20:09:41.344Z,15.00
2022-11-08T20:12:12.990Z,15.00
2022-11-08T20:14:44.640Z,15.00
2022-11-08T20:17:16.288Z,15.00
2022-11-08T20:19:49.662Z,14.90
2022-11-08T20:22:21.287Z,14.90
2022-11-08T20:24:52.941Z,14.90
2022-11-08T20:27:24.576Z,14.90
2022-11-08T20:29:56.210Z,14.90
2022-11-08T20:32:27.855Z,14.90
2022-11-08T20:35:04.098Z,14.90
2022-11-08T20:37:36.144Z,14.90
2022-11-08T20:40:09.318Z,14.90
2022-11-08T20:42:40.988Z,14.90
2022-11-08T20:45:15.110Z,14.90
2022-11-08T20:47:48.320Z,15.00
2022-11-08T20:50:21.457Z,15.00
2022-11-08T20:52:53.111Z,15.00
2022-11-08T20:55:24.772Z,15.00
2022-11-08T20:57:56.397Z,15.10
2022-11-08T21:00:51.922Z,15.10
2022-11-08T21:03:19.702Z,15.00
2022-11-08T21:05:53.497Z,15.10
2022-11-08T21:11:17.236Z,15.10
2022-11-08T21:13:48.899Z,15.10
2022-11-08T21:16:29.750Z,15.10
2022-11-08T21:19:02.506Z,15.00
2022-11-08T21:21:35.652Z,15.00
2022-11-08T21:24:07.791Z,15.00
2022-11-08T21:26:39.458Z,15.00
2022-11-08T21:29:11.108Z,15.00
2022-11-08T21:31:42.795Z,15.10
2022-11-08T21:34:14.448Z,15.10
2022-11-08T21:36:47.589Z,15.10
2022-11-08T21:39:19.256Z,15.20
2022-11-08T21:41:50.952Z,15.20
2022-11-08T21:44:22.609Z,15.20
2022-11-08T21:46:54.267Z,15.20
2022-11-08T21:49:25.916Z,15.20
2022-11-08T21:51:58.919Z,15.20
2022-11-08T21:54:30.567Z,15.20
2022-11-08T21:57:02.229Z,15.10
2022-11-08T21:59:33.904Z,15.10
2022-11-08T22:02:05.580Z,15.10
2022-11-08T22:04:37.219Z,15.10
2022-11-08T22:07:10.263Z,15.10
2022-11-08T22:09:41.935Z,15.00
2022-11-08T22:12:13.608Z,15.00
2022-11-08T22:14:45.268Z,15.00
2022-11-08T22:17:16.952Z,15.00
2022-11-08T22:19:48.599Z,15.00
2022-11-08T22:22:21.600Z,14.90
2022-11-08T22:24:53.270Z,14.90
2022-11-08T22:27:24.915Z,14.90
2022-11-08T22:29:56.597Z,14.90
2022-11-08T22:32:28.273Z,15.00
2022-11-08T22:34:59.919Z,15.00
2022-11-08T22:37:32.898Z,15.00
2022-11-08T22:40:05.619Z,15.00
2022-11-08T22:42:37.263Z,15.00
2022-11-08T22:45:09.885Z,15.00
2022-11-08T22:47:41.526Z,15.00
2022-11-08T22:50:13.229Z,15.00
2022-11-08T22:52:46.277Z,15.00
2022-11-08T22:55:17.938Z,15.00
2022-11-08T22:57:49.580Z,15.00
